Time;durP1;ratioP1;P1;durP2;ratioP2;P2;SDS_P1;SDS_P2;PMS_P1;PMS_P2;Temp;Humidity;BMP_temperature;BMP_pressure;BME280_temperature;BME280_humidity;BME280_pressure;Samples;Min_cycle;Max_cycle;Signal;HPM_P1;HPM_P2
2022/01/09 00:02:19;;;;;;;1.40;1.40;;;7.30;99.90;7.60;98979.00;;;;5035978;28;20652;-65
2022/01/09 00:04:55;;;;;;;1.60;1.60;;;7.30;99.90;7.50;98990.00;;;;5034949;28;20196;-65
2022/01/09 00:07:34;;;;;;;2.80;2.63;;;7.30;99.90;7.40;98991.00;;;;5035614;28;20633;-65
2022/01/09 00:10:13;;;;;;;2.23;1.83;;;7.40;99.90;7.40;98991.00;;;;5050829;28;20325;-65
2022/01/09 00:12:56;;;;;;;1.80;1.80;;;7.40;99.90;7.50;98998.00;;;;5048708;28;20204;-65
2022/01/09 00:15:32;;;;;;;2.33;2.23;;;7.50;99.90;7.50;99011.00;;;;5035042;28;20306;-65
2022/01/09 00:18:12;;;;;;;6.87;4.53;;;7.50;99.90;7.20;99012.00;;;;5035384;28;20174;-65
2022/01/09 00:20:49;;;;;;;1.67;1.67;;;7.40;99.90;7.50;99030.00;;;;5034183;28;20600;-65
2022/01/09 00:23:25;;;;;;;3.43;3.33;;;7.50;99.90;7.60;99014.00;;;;5034185;28;20281;-65
2022/01/09 00:26:06;;;;;;;2.43;2.33;;;7.50;99.90;7.70;99010.00;;;;5035245;28;20265;-65
2022/01/09 00:28:42;;;;;;;3.33;3.03;;;7.60;99.90;7.60;99061.00;;;;5035294;28;20286;-65
2022/01/09 00:31:19;;;;;;;1.70;1.70;;;7.60;99.90;7.90;99074.00;;;;5049640;28;20189;-66
2022/01/09 00:34:01;;;;;;;2.73;2.00;;;7.70;99.90;7.70;99065.00;;;;5034697;28;20178;-66
2022/01/09 00:36:35;;;;;;;2.37;2.17;;;7.70;99.90;7.60;99067.00;;;;5035042;28;20265;-66
2022/01/09 00:39:15;;;;;;;1.77;1.77;;;7.60;99.90;7.90;99075.00;;;;5050161;28;20635;-66
2022/01/09 00:41:51;;;;;;;1.90;1.90;;;7.70;99.90;7.80;99078.00;;;;5050472;28;20196;-66
2022/01/09 00:44:33;;;;;;;3.03;2.13;;;7.70;99.90;7.50;99075.00;;;;5050051;28;20176;-66
2022/01/09 00:47:07;;;;;;;1.40;1.40;;;7.60;99.90;7.60;99089.00;;;;5034810;28;20198;-66
2022/01/09 00:49:47;;;;;;;1.90;1.80;;;7.60;99.90;7.30;99093.00;;;;5050552;28;20186;-66
2022/01/09 00:52:23;;;;;;;1.93;1.93;;;7.60;99.90;7.40;99102.00;;;;5034667;28;20203;-66
2022/01/09 00:55:06;;;;;;;1.73;1.63;;;7.60;99.90;7.70;99105.00;;;;5048801;28;20240;-66
2022/01/09 00:57:39;;;;;;;1.60;1.60;;;7.60;99.90;7.70;99099.00;;;;5034405;28;20673;-66
2022/01/09 01:00:15;;;;;;;4.97;2.00;;;7.60;99.90;7.50;99111.00;;;;5033176;28;20183;-65
2022/01/09 01:02:54;;;;;;;5.33;2.53;;;7.60;99.90;7.50;99049.00;;;;5033977;28;20645;-66
2022/01/09 01:05:29;;;;;;;1.60;1.60;;;7.60;99.90;7.50;99110.00;;;;5034854;28;20221;-66
2022/01/09 01:08:06;;;;;;;1.57;1.57;;;7.60;99.90;7.60;99114.00;;;;5034914;28;20179;-65
2022/01/09 01:10:40;;;;;;;8.67;3.87;;;7.60;99.90;7.50;99133.00;;;;5049579;28;20547;-65
2022/01/09 01:13:16;;;;;;;1.50;1.50;;;7.60;99.90;7.60;99141.00;;;;5049622;28;20280;-66
2022/01/09 01:15:57;;;;;;;1.50;1.50;;;7.60;99.90;7.50;99148.00;;;;5049445;28;20175;-66
2022/01/09 01:18:33;;;;;;;1.67;1.67;;;7.60;99.90;7.60;99155.00;;;;5049358;28;20263;-66
2022/01/09 01:21:08;;;;;;;1.60;1.60;;;7.60;99.90;7.70;99140.00;;;;5034580;28;20170;-66
2022/01/09 01:23:47;;;;;;;1.43;1.43;;;7.60;99.90;7.50;99155.00;;;;5049308;28;20236;-66
2022/01/09 01:26:24;;;;;;;1.40;1.40;;;7.50;99.90;7.50;99160.00;;;;5065685;28;20261;-66
2022/01/09 01:29:01;;;;;;;3.03;2.93;;;7.50;99.90;7.40;99144.00;;;;5034168;28;20254;-66
2022/01/09 01:31:38;;;;;;;1.90;1.90;;;7.50;99.90;7.40;99189.00;;;;5033917;28;20313;-66
2022/01/09 01:34:17;;;;;;;1.87;1.87;;;7.50;99.90;7.70;99185.00;;;;5033943;28;20258;-66
2022/01/09 01:36:58;;;;;;;2.03;1.97;;;7.60;99.90;7.60;99194.00;;;;5034070;28;20215;-66
2022/01/09 01:39:40;;;;;;;1.80;1.80;;;7.70;99.90;7.70;99215.00;;;;5064388;28;20404;-66
2022/01/09 01:42:19;;;;;;;2.73;2.57;;;7.70;99.90;7.60;99219.00;;;;5033916;28;20175;-66
2022/01/09 01:44:59;;;;;;;1.70;1.70;;;7.60;99.90;7.80;99181.00;;;;5065602;28;20694;-66
2022/01/09 01:47:28;;;;;;;1.90;1.90;;;7.60;99.90;7.60;99217.00;;;;5033726;28;20194;-67
2022/01/09 01:50:11;;;;;;;1.90;1.90;;;7.60;99.90;7.60;99233.00;;;;5065751;28;20179;-66
2022/01/09 01:52:56;;;;;;;1.90;1.90;;;7.50;99.90;7.60;99221.00;;;;5032971;28;20237;-66
2022/01/09 01:55:36;;;;;;;2.00;2.00;;;7.50;99.90;7.60;99263.00;;;;5033325;28;20182;-66
2022/01/09 01:58:18;;;;;;;2.77;2.07;;;7.50;99.90;7.40;99237.00;;;;5033604;28;20213;-66
2022/01/09 02:00:58;;;;;;;2.40;2.20;;;7.50;99.90;7.30;99263.00;;;;5033489;28;20175;-66
2022/01/09 02:03:35;;;;;;;2.10;2.00;;;7.40;99.90;7.60;99271.00;;;;5048130;28;20182;-66
2022/01/09 02:06:14;;;;;;;2.50;2.40;;;7.40;99.90;7.70;99278.00;;;;5048206;28;20176;-67
2022/01/09 02:08:51;;;;;;;2.00;2.00;;;7.50;99.90;8.00;99275.00;;;;5048679;28;20178;-66
2022/01/09 02:11:29;;;;;;;2.10;2.00;;;7.60;99.90;7.90;99288.00;;;;5048680;28;20212;-66
2022/01/09 02:14:06;;;;;;;2.03;2.00;;;7.70;99.90;7.50;99284.00;;;;5048645;28;20180;-66
2022/01/09 02:16:47;;;;;;;2.30;2.10;;;7.60;99.90;7.50;99277.00;;;;5048592;28;20177;-66
2022/01/09 02:19:27;;;;;;;2.30;2.23;;;7.50;99.90;7.70;99295.00;;;;5048493;28;20264;-66
2022/01/09 02:22:02;;;;;;;2.03;2.03;;;7.60;99.90;7.70;99273.00;;;;5033357;28;20214;-65
2022/01/09 02:24:41;;;;;;;2.50;2.40;;;7.60;99.90;7.70;99297.00;;;;5033136;28;20534;-65
2022/01/09 02:27:16;;;;;;;1.90;1.90;;;7.60;99.90;7.50;99280.00;;;;5033740;28;20192;-66
2022/01/09 02:29:53;;;;;;;2.50;2.40;;;7.60;99.90;7.30;99318.00;;;;5065051;28;20181;-66
2022/01/09 02:32:31;;;;;;;2.53;2.43;;;7.40;99.90;7.40;99329.00;;;;5033278;28;20223;-66
2022/01/09 02:35:09;;;;;;;4.57;4.27;;;7.40;99.90;7.50;99335.00;;;;5033353;28;20213;-66
2022/01/09 02:37:45;;;;;;;1.97;1.97;;;7.50;99.90;7.60;99347.00;;;;5033227;28;20181;-66
2022/01/09 02:40:22;;;;;;;1.80;1.80;;;7.50;99.90;7.50;99347.00;;;;5033382;28;20271;-65
2022/01/09 02:43:03;;;;;;;1.60;1.60;;;7.40;99.90;7.40;99323.00;;;;5032736;28;20527;-65
2022/01/09 02:45:39;;;;;;;6.30;2.07;;;7.40;99.90;7.20;99330.00;;;;5033335;28;20175;-65
2022/01/09 02:48:21;;;;;;;4.10;2.40;;;7.30;99.90;7.20;99361.00;;;;5064898;28;20554;-65
2022/01/09 02:51:04;;;;;;;1.80;1.80;;;7.20;99.90;7.40;99368.00;;;;5033122;28;20178;-65
2022/01/09 02:53:47;;;;;;;1.73;1.73;;;7.30;99.90;7.70;99382.00;;;;5032515;28;20175;-65
2022/01/09 02:56:21;;;;;;;2.30;2.20;;;7.50;99.90;7.50;99384.00;;;;5048515;28;20188;-66
2022/01/09 02:58:57;;;;;;;1.80;1.80;;;7.40;99.90;7.20;99354.00;;;;5048087;28;20551;-66
2022/01/09 03:01:30;;;;;;;1.90;1.90;;;7.30;99.90;7.30;99380.00;;;;5047473;28;20188;-66
2022/01/09 03:04:01;;;;;;;2.90;2.80;;;7.30;99.90;7.20;99377.00;;;;5047818;28;20224;-66
2022/01/09 03:06:40;;;;;;;1.50;1.50;;;7.20;99.90;7.10;99396.00;;;;5033059;28;20208;-66
2022/01/09 03:09:19;;;;;;;1.70;1.70;;;7.20;99.90;7.40;99405.00;;;;5032935;28;20181;-66
2022/01/09 03:11:53;;;;;;;1.90;1.90;;;7.30;99.90;7.60;99408.00;;;;5047522;28;20252;-66
2022/01/09 03:14:27;;;;;;;1.80;1.80;;;7.40;99.90;7.60;99413.00;;;;5032668;28;20190;-66
2022/01/09 03:17:09;;;;;;;1.77;1.77;;;7.40;99.90;7.50;99408.00;;;;5033041;28;20177;-66
2022/01/09 03:19:45;;;;;;;1.60;1.60;;;7.40;99.90;7.30;99408.00;;;;5050697;28;20181;-66
2022/01/09 03:22:21;;;;;;;1.40;1.40;;;7.30;99.90;7.40;99384.00;;;;5051922;28;20247;-66
2022/01/09 03:24:55;;;;;;;2.80;1.57;;;7.30;99.90;7.10;99426.00;;;;5051684;28;20658;-67
2022/01/09 03:27:31;;;;;;;2.30;1.60;;;7.30;99.90;6.80;99404.00;;;;5036550;28;20181;-66
2022/01/09 03:30:13;;;;;;;2.23;2.13;;;7.10;99.90;7.10;99444.00;;;;5051477;28;20625;-67
2022/01/09 03:32:47;;;;;;;1.13;1.13;;;7.10;99.90;6.80;99445.00;;;;5036419;28;20215;-66
2022/01/09 03:35:26;;;;;;;1.83;1.73;;;7.10;99.90;7.00;99404.00;;;;5051264;28;20178;-67
2022/01/09 03:38:06;;;;;;;1.30;1.30;;;7.10;99.90;7.10;99448.00;;;;5036223;28;20177;-66
2022/01/09 03:40:41;;;;;;;8.27;2.73;;;7.10;99.90;6.90;99456.00;;;;5050747;28;20181;-66
2022/01/09 03:43:17;;;;;;;2.70;2.23;;;7.10;99.90;6.60;99453.00;;;;5051617;28;20645;-66
2022/01/09 03:45:53;;;;;;;1.10;1.10;;;7.00;99.90;7.00;99465.00;;;;5051122;28;20184;-67
2022/01/09 03:48:29;;;;;;;1.00;1.00;;;7.00;99.90;6.90;99455.00;;;;5051199;28;20199;-67
2022/01/09 03:51:03;;;;;;;1.10;1.10;;;7.10;99.90;6.90;99472.00;;;;5050687;28;20178;-67
2022/01/09 03:53:36;;;;;;;2.00;1.83;;;7.10;99.90;6.90;99478.00;;;;5036239;28;20220;-67
2022/01/09 03:56:17;;;;;;;1.37;1.37;;;7.10;99.90;7.30;99494.00;;;;5035411;28;20270;-67
2022/01/09 03:58:57;;;;;;;1.10;1.10;;;7.10;99.90;6.70;99482.00;;;;5035938;28;20176;-66
2022/01/09 04:01:31;;;;;;;4.63;1.50;;;7.00;99.90;6.70;99488.00;;;;5050569;28;20191;-66
2022/01/09 04:04:07;;;;;;;5.30;2.07;;;6.90;99.90;6.50;99490.00;;;;5050821;28;20178;-66
2022/01/09 04:06:46;;;;;;;1.00;1.00;;;6.80;99.90;6.50;99489.00;;;;5035779;28;20649;-66
2022/01/09 04:09:38;;;;;;;1.07;1.07;;;6.80;99.90;6.50;99480.00;;;;5035642;28;20165;-66
2022/01/09 04:12:19;;;;;;;7.67;1.23;;;6.80;99.90;6.50;99510.00;;;;5048727;28;20198;-66
2022/01/09 04:14:58;;;;;;;1.27;1.27;;;6.80;99.90;7.10;99524.00;;;;5050118;28;20195;-66
2022/01/09 04:17:54;;;;;;;1.00;1.00;;;6.90;99.90;7.20;99516.00;;;;5035658;28;20194;-65
2022/01/09 04:20:30;;;;;;;1.30;1.30;;;7.10;99.90;7.00;99526.00;;;;5046486;28;20237;-66
2022/01/09 04:23:07;;;;;;;1.23;1.23;;;7.00;99.90;7.30;99525.00;;;;5032775;28;20183;-66
2022/01/09 04:25:45;;;;;;;1.00;1.00;;;7.10;99.90;7.00;99528.00;;;;5016393;28;20187;-66
2022/01/09 04:28:25;;;;;;;1.77;1.67;;;7.00;99.90;6.50;99535.00;;;;5033753;28;20185;-65
2022/01/09 04:31:00;;;;;;;0.90;0.90;;;6.90;99.90;7.00;99521.00;;;;5033435;28;20181;-66
2022/01/09 04:33:37;;;;;;;5.83;2.60;;;6.90;99.90;6.30;99540.00;;;;5035095;28;20188;-67
2022/01/09 04:36:17;;;;;;;1.63;1.53;;;6.80;99.90;6.50;99536.00;;;;5035387;28;20264;-67
2022/01/09 04:38:56;;;;;;;0.60;0.60;;;6.80;99.90;6.40;99544.00;;;;5035088;28;20176;-66
2022/01/09 04:41:30;;;;;;;1.13;1.13;;;6.70;99.90;6.60;99562.00;;;;5033855;28;20232;-67
2022/01/09 04:44:08;;;;;;;0.90;0.90;;;6.70;99.90;6.20;99570.00;;;;5034931;28;20193;-67
2022/01/09 04:46:55;;;;;;;1.80;0.87;;;6.60;99.90;6.30;99566.00;;;;5035311;28;20313;-66
2022/01/09 04:49:37;;;;;;;3.80;1.90;;;6.60;99.90;6.10;99571.00;;;;5035151;28;20175;-66
2022/01/09 04:52:20;;;;;;;1.07;0.77;;;6.50;99.90;6.10;99569.00;;;;5034740;28;20214;-66
2022/01/09 04:54:48;;;;;;;1.30;0.93;;;6.40;99.90;6.10;99570.00;;;;5033504;28;20676;-66
2022/01/09 04:57:25;;;;;;;0.90;0.90;;;6.40;99.90;6.30;99578.00;;;;5033596;28;20574;-67
2022/01/09 04:59:53;;;;;;;1.00;1.00;;;6.40;99.90;6.60;99569.00;;;;5033639;28;20176;-66
2022/01/09 05:02:32;;;;;;;0.70;0.70;;;6.60;99.90;6.40;99599.00;;;;5034422;28;20208;-66
2022/01/09 05:05:09;;;;;;;0.70;0.70;;;6.50;99.90;6.50;99604.00;;;;5034813;28;20181;-66
2022/01/09 05:07:43;;;;;;;2.80;1.97;;;6.60;99.90;6.30;99567.00;;;;5033207;28;20176;-66
2022/01/09 05:10:15;;;;;;;0.70;0.70;;;6.60;99.90;6.10;99601.00;;;;5034486;28;20206;-66
2022/01/09 05:12:51;;;;;;;0.40;0.40;;;6.40;99.90;6.20;99584.00;;;;5032998;28;20211;-67
2022/01/09 05:15:28;;;;;;;4.20;1.07;;;6.40;99.90;5.70;99596.00;;;;5033098;28;20206;-67
2022/01/09 05:18:13;;;;;;;4.43;0.77;;;6.20;99.90;6.20;99607.00;;;;5034080;28;20207;-66
2022/01/09 05:20:50;;;;;;;6.90;2.90;;;6.30;99.90;6.20;99628.00;;;;5033203;28;20178;-66
2022/01/09 05:23:26;;;;;;;1.53;1.43;;;6.30;99.90;6.10;99630.00;;;;5033913;28;20185;-67
2022/01/09 05:26:05;;;;;;;2.10;2.00;;;6.30;99.90;6.30;99632.00;;;;5034244;28;20621;-67
2022/01/09 05:28:42;;;;;;;0.67;0.67;;;6.40;99.90;6.20;99643.00;;;;5032651;28;20179;-66
2022/01/09 05:31:19;;;;;;;0.50;0.50;;;6.30;99.90;6.40;99635.00;;;;5034108;28;20216;-66
2022/01/09 05:33:55;;;;;;;1.27;0.80;;;6.40;99.90;6.20;99638.00;;;;5032692;28;20187;-66
2022/01/09 05:36:32;;;;;;;2.37;1.40;;;6.40;99.90;6.10;99637.00;;;;5032683;28;20179;-67
2022/01/09 05:39:09;;;;;;;0.57;0.57;;;6.30;99.90;5.90;99649.00;;;;5033293;28;20201;-67
2022/01/09 05:41:50;;;;;;;0.40;0.40;;;6.20;99.90;6.00;99648.00;;;;5032302;28;20266;-67
2022/01/09 05:44:26;;;;;;;1.73;1.30;;;6.20;99.90;6.30;99653.00;;;;5033865;28;20641;-67
2022/01/09 05:47:03;;;;;;;0.50;0.50;;;6.30;99.90;6.50;99662.00;;;;5033817;28;20168;-66
2022/01/09 05:49:39;;;;;;;0.60;0.60;;;6.50;99.90;6.30;99658.00;;;;5032311;28;20587;-66
2022/01/09 05:52:18;;;;;;;2.20;1.73;;;6.50;99.90;6.10;99654.00;;;;5033649;28;20230;-66
2022/01/09 05:54:54;;;;;;;0.50;0.50;;;6.40;99.90;5.90;99651.00;;;;5033585;28;20177;-66
2022/01/09 05:57:31;;;;;;;1.73;1.63;;;6.30;99.90;6.20;99660.00;;;;5032608;28;20210;-66
2022/01/09 06:00:07;;;;;;;3.93;1.00;;;6.30;99.90;5.90;99673.00;;;;5033756;28;20207;-66
2022/01/09 06:02:46;;;;;;;3.80;1.07;;;6.30;99.90;6.20;99669.00;;;;5032210;28;20191;-66
2022/01/09 06:05:24;;;;;;;1.60;0.83;;;6.30;99.90;5.90;99638.00;;;;5032171;28;20180;-67
2022/01/09 06:07:57;;;;;;;0.40;0.40;;;6.20;99.90;6.20;99691.00;;;;5032267;28;20242;-66
2022/01/09 06:10:37;;;;;;;0.40;0.40;;;6.40;99.90;6.00;99691.00;;;;5033703;28;20617;-66
2022/01/09 06:13:12;;;;;;;3.80;1.07;;;6.30;99.90;6.10;99682.00;;;;5032062;28;20677;-66
2022/01/09 06:15:49;;;;;;;2.97;0.90;;;6.40;99.90;5.60;99683.00;;;;5032204;28;20262;-66
2022/01/09 06:18:26;;;;;;;10.40;1.83;;;6.20;99.90;6.10;99693.00;;;;5033560;28;20632;-67
2022/01/09 06:21:00;;;;;;;5.20;1.17;;;6.20;99.90;5.70;99687.00;;;;5015383;28;20211;-66
2022/01/09 06:23:37;;;;;;;0.40;0.40;;;6.20;99.90;6.20;99697.00;;;;5032057;28;20185;-66
2022/01/09 06:26:10;;;;;;;1.53;1.00;;;6.20;99.90;5.60;99674.00;;;;5033218;28;20550;-66
2022/01/09 06:28:47;;;;;;;0.77;0.50;;;6.20;99.90;5.70;99708.00;;;;5033307;28;20229;-66
2022/01/09 06:31:18;;;;;;;0.30;0.30;;;6.00;99.90;5.80;99711.00;;;;5031841;28;20200;-66
2022/01/09 06:33:56;;;;;;;2.03;1.33;;;6.00;99.90;6.10;99637.00;;;;5031773;28;20268;-67
2022/01/09 06:36:32;;;;;;;2.40;1.03;;;6.20;99.90;6.00;99713.00;;;;5031762;28;20179;-67
2022/01/09 06:39:09;;;;;;;3.40;0.80;;;6.10;99.90;5.50;99695.00;;;;5015812;28;20545;-66
2022/01/09 06:41:48;;;;;;;3.03;1.53;;;5.90;99.90;5.70;99701.00;;;;5031555;28;20183;-66
2022/01/09 06:44:19;;;;;;;1.03;0.83;;;5.90;99.90;5.30;99709.00;;;;5033023;28;20179;-66
2022/01/09 06:47:03;;;;;;;2.33;2.10;;;5.80;99.90;5.50;99712.00;;;;5032110;28;20223;-66
2022/01/09 06:49:40;;;;;;;0.60;0.60;;;5.80;99.90;5.90;99728.00;;;;5031935;28;20174;-66
2022/01/09 06:52:14;;;;;;;2.93;1.27;;;5.90;99.90;5.70;99735.00;;;;5031883;28;20199;-66
2022/01/09 06:54:53;;;;;;;3.50;1.90;;;5.90;99.90;5.80;99732.00;;;;5036137;28;20251;-66
2022/01/09 06:57:33;;;;;;;0.60;0.60;;;6.00;99.90;5.70;99734.00;;;;5035819;28;20570;-67
2022/01/09 07:00:12;;;;;;;0.50;0.50;;;5.90;99.90;5.80;99732.00;;;;5035674;28;20183;-67
2022/01/09 07:02:52;;;;;;;3.50;1.27;;;6.00;99.90;5.30;99728.00;;;;5034731;28;20219;-67
2022/01/09 07:05:28;;;;;;;2.07;1.87;;;5.80;99.90;5.70;99730.00;;;;5035449;28;20177;-68
2022/01/09 07:08:02;;;;;;;0.83;0.80;;;5.80;99.90;5.50;99738.00;;;;5019381;28;20182;-67
2022/01/09 07:10:31;;;;;;;0.73;0.63;;;5.80;99.90;5.80;99715.00;;;;5036678;28;20217;-67
2022/01/09 07:13:04;;;;;;;0.40;0.40;;;5.90;99.90;5.30;99748.00;;;;5036751;28;20577;-66
2022/01/09 07:15:40;;;;;;;8.77;1.17;;;5.70;99.90;5.60;99743.00;;;;5035472;28;20172;-67
2022/01/09 07:18:11;;;;;;;5.20;2.00;;;5.80;99.90;5.80;99749.00;;;;5024523;28;20652;-66
2022/01/09 07:20:48;;;;;;;0.40;0.40;;;5.90;99.90;5.40;99758.00;;;;5067410;28;20399;-66
2022/01/09 07:23:22;;;;;;;9.57;1.47;;;5.80;99.90;5.80;99757.00;;;;5035567;28;20209;-67
2022/01/09 07:25:54;;;;;;;4.53;0.93;;;5.90;99.90;5.50;99768.00;;;;5036375;28;20187;-67
2022/01/09 07:28:27;;;;;;;3.60;1.70;;;5.80;99.90;5.40;99769.00;;;;5035021;28;20188;-67
2022/01/09 07:30:58;;;;;;;4.03;1.00;;;5.80;99.90;5.30;99774.00;;;;5036048;28;20628;-67
2022/01/09 07:33:34;;;;;;;4.73;1.33;;;5.70;99.90;5.40;99782.00;;;;5035907;28;20727;-67
2022/01/09 07:36:11;;;;;;;2.87;1.13;;;5.70;99.90;5.20;99787.00;;;;5036103;28;20184;-66
2022/01/09 07:38:43;;;;;;;1.00;0.83;;;5.70;99.90;5.20;99779.00;;;;5035154;28;20212;-67
2022/01/09 07:41:15;;;;;;;0.37;0.37;;;5.70;99.90;5.20;99737.00;;;;5036116;28;20659;-67
2022/01/09 07:43:47;;;;;;;4.27;1.33;;;5.70;99.90;5.20;99788.00;;;;5034905;28;20262;-67
2022/01/09 07:46:17;;;;;;;0.40;0.40;;;5.60;99.90;5.60;99793.00;;;;5036167;28;20638;-67
2022/01/09 07:48:50;;;;;;;0.40;0.40;;;5.70;99.90;5.40;99784.00;;;;5034744;28;20226;-67
2022/01/09 07:51:24;;;;;;;0.47;0.47;;;5.70;99.90;5.20;99788.00;;;;5034612;28;20179;-68
2022/01/09 07:53:55;;;;;;;0.53;0.53;;;5.60;99.90;5.60;99740.00;;;;5034579;28;20177;-65
2022/01/09 07:56:26;;;;;;;0.60;0.60;;;5.70;99.90;5.50;99804.00;;;;5035866;28;20183;-65
2022/01/09 07:59:02;;;;;;;1.30;1.07;;;5.70;99.90;5.50;99803.00;;;;5035895;28;20177;-64
2022/01/09 08:01:36;;;;;;;0.50;0.50;;;5.80;99.90;5.60;99766.00;;;;5033820;28;20191;-64
2022/01/09 08:04:10;;;;;;;1.67;1.57;;;5.80;99.90;5.50;99810.00;;;;5016978;28;21171;-65
2022/01/09 08:06:44;;;;;;;0.40;0.40;;;5.90;99.90;5.60;99823.00;;;;5024785;28;20202;-64
2022/01/09 08:09:17;;;;;;;0.90;0.90;;;5.80;99.90;5.70;99832.00;;;;5035366;28;20632;-64
2022/01/09 08:11:52;;;;;;;0.83;0.83;;;5.80;99.90;5.50;99831.00;;;;5028690;28;20192;-65
2022/01/09 08:14:28;;;;;;;3.40;0.90;;;5.80;99.90;5.40;99828.00;;;;5030248;28;20195;-65
2022/01/09 08:17:05;;;;;;;2.73;2.40;;;5.80;99.90;5.50;99849.00;;;;5032535;28;20651;-64
2022/01/09 08:19:36;;;;;;;0.53;0.53;;;5.80;99.90;6.00;99851.00;;;;5033665;28;20171;-64
2022/01/09 08:22:08;;;;;;;3.27;1.40;;;6.00;99.90;5.60;99846.00;;;;5027629;28;20196;-65
2022/01/09 08:24:42;;;;;;;0.93;0.73;;;5.90;99.90;5.20;99851.00;;;;5035317;28;20179;-64
2022/01/09 08:27:18;;;;;;;2.00;1.90;;;5.70;99.90;5.30;99856.00;;;;5035233;28;20299;-64
2022/01/09 08:29:49;;;;;;;8.40;2.10;;;5.70;99.90;5.30;99849.00;;;;5035101;28;20191;-65
2022/01/09 08:32:30;;;;;;;0.63;0.60;;;5.70;99.90;5.30;99857.00;;;;5033179;28;20223;-64
2022/01/09 08:35:05;;;;;;;0.50;0.50;;;5.70;99.90;5.20;99867.00;;;;5033503;28;20175;-65
2022/01/09 08:37:42;;;;;;;0.40;0.40;;;5.70;99.90;5.30;99873.00;;;;5017248;28;20180;-64
2022/01/09 08:40:21;;;;;;;2.20;1.13;;;5.60;99.90;5.20;99839.00;;;;5033648;28;20181;-64
2022/01/09 08:42:55;;;;;;;0.40;0.40;;;5.70;99.90;5.30;99874.00;;;;5033067;28;20322;-66
2022/01/09 08:45:32;;;;;;;2.93;1.30;;;5.60;99.90;5.50;99873.00;;;;5016732;28;20203;-65
2022/01/09 08:48:03;;;;;;;4.33;1.13;;;5.80;99.90;5.20;99879.00;;;;5033676;28;20188;-66
2022/01/09 08:50:34;;;;;;;0.40;0.40;;;5.80;99.90;5.30;99876.00;;;;5017261;28;20193;-65
2022/01/09 08:53:02;;;;;;;0.30;0.30;;;5.60;99.90;5.40;99861.00;;;;5034542;28;20205;-66
2022/01/09 08:55:36;;;;;;;4.07;0.90;;;5.70;99.90;5.20;99832.00;;;;5034739;28;20191;-65
2022/01/09 08:58:07;;;;;;;5.30;3.07;;;5.70;99.90;5.10;99896.00;;;;5033476;28;20226;-64
2022/01/09 09:00:42;;;;;;;0.67;0.50;;;5.70;99.90;5.20;99891.00;;;;5050182;28;20638;-64
2022/01/09 09:03:13;;;;;;;4.77;1.23;;;5.70;99.90;5.50;99887.00;;;;5034393;28;20277;-65
2022/01/09 09:05:47;;;;;;;7.50;2.20;;;5.80;99.90;5.50;99893.00;;;;5033391;28;20182;-64
2022/01/09 09:08:18;;;;;;;3.17;1.37;;;5.80;99.90;5.20;99900.00;;;;5034448;28;20596;-65
2022/01/09 09:10:46;;;;;;;1.07;1.07;;;5.80;99.90;5.40;99890.00;;;;5034399;28;20201;-65
2022/01/09 09:13:15;;;;;;;3.07;1.63;;;5.80;99.90;5.50;99864.00;;;;5034416;28;20311;-65
2022/01/09 09:15:46;;;;;;;6.70;3.93;;;5.80;99.90;5.20;99906.00;;;;5033642;28;20180;-64
2022/01/09 09:18:17;;;;;;;2.00;0.73;;;5.70;99.90;5.30;99907.00;;;;5033220;28;20471;-64
2022/01/09 09:20:45;;;;;;;1.00;1.00;;;5.80;99.90;5.50;99918.00;;;;5034304;28;20563;-65
2022/01/09 09:23:16;;;;;;;1.20;0.97;;;5.80;99.90;5.50;99920.00;;;;5032930;28;20208;-65
2022/01/09 09:25:49;;;;;;;0.30;0.30;;;5.90;99.90;6.00;99932.00;;;;5034375;28;20179;-65
2022/01/09 09:28:22;;;;;;;0.97;0.53;;;6.20;99.90;6.60;99923.00;;;;5032721;28;20182;-64
2022/01/09 09:30:55;;;;;;;1.57;1.40;;;6.50;99.90;6.40;99938.00;;;;5034538;28;20208;-65
2022/01/09 09:33:26;;;;;;;0.67;0.67;;;6.50;99.90;6.40;99947.00;;;;5033796;28;20582;-65
2022/01/09 09:36:03;;;;;;;0.30;0.30;;;6.50;99.90;6.40;99952.00;;;;5034344;28;20191;-64
2022/01/09 09:38:34;;;;;;;10.47;1.87;;;6.60;99.90;6.90;99943.00;;;;5034026;28;20173;-64
2022/01/09 09:41:05;;;;;;;0.40;0.40;;;6.90;99.90;7.40;99951.00;;;;5034132;28;20229;-65
2022/01/09 09:43:39;;;;;;;2.33;0.53;;;7.10;99.90;5.80;99951.00;;;;5032817;28;20653;-64
2022/01/09 09:46:09;;;;;;;1.37;0.90;;;6.60;99.90;5.80;99943.00;;;;5033798;28;20181;-65
2022/01/09 09:48:40;;;;;;;0.87;0.87;;;6.40;99.90;6.50;99945.00;;;;5016506;28;20183;-65
2022/01/09 09:51:11;;;;;;;0.47;0.47;;;6.60;99.90;6.00;99955.00;;;;5032877;28;20177;-64
2022/01/09 09:53:46;;;;;;;1.17;1.10;;;6.50;99.90;6.00;99956.00;;;;5033713;28;20275;-66
2022/01/09 09:56:14;;;;;;;0.80;0.80;;;6.50;99.90;6.00;99948.00;;;;5033726;28;20180;-64
2022/01/09 09:58:52;;;;;;;0.30;0.30;;;6.40;99.90;6.10;99957.00;;;;5033704;28;20182;-65
2022/01/09 10:01:37;;;;;;;0.60;0.60;;;6.50;99.90;6.10;99960.00;;;;5033510;28;20191;-65
2022/01/09 10:04:12;;;;;;;1.50;0.97;;;6.50;99.90;5.90;99968.00;;;;5033415;28;20185;-63
2022/01/09 10:06:47;;;;;;;7.93;2.00;;;6.40;99.90;6.10;99950.00;;;;5033553;28;20226;-64
2022/01/09 10:09:25;;;;;;;1.53;1.43;;;6.50;99.90;6.30;99963.00;;;;5031998;28;20541;-64
2022/01/09 10:12:03;;;;;;;2.27;1.80;;;6.50;99.90;6.30;99969.00;;;;5033191;28;20285;-65
2022/01/09 10:14:35;;;;;;;3.77;1.30;;;6.70;99.90;6.30;99971.00;;;;5032073;28;20260;-64
2022/01/09 10:17:16;;;;;;;0.50;0.50;;;6.70;99.90;6.10;99971.00;;;;5033470;28;20219;-65
2022/01/09 10:19:56;;;;;;;2.00;1.20;;;6.60;99.90;6.10;99968.00;;;;5032423;28;20183;-65
2022/01/09 10:33:25;;;;;;;0.37;0.37;;;6.30;99.90;6.20;99950.00;;;;5070527;28;20551;-65
2022/01/09 10:35:56;;;;;;;2.10;1.63;;;6.50;99.90;6.50;99960.00;;;;5066088;28;20190;-65
2022/01/09 10:38:29;;;;;;;1.53;1.17;;;6.80;99.90;6.10;99936.00;;;;5065879;28;20179;-65
2022/01/09 10:41:03;;;;;;;0.30;0.30;;;6.70;99.90;6.30;99971.00;;;;5065666;28;20632;-64
2022/01/09 10:43:40;;;;;;;0.67;0.50;;;6.80;99.90;6.30;99964.00;;;;5050367;28;20196;-65
2022/01/09 10:46:09;;;;;;;2.23;2.03;;;6.70;99.90;6.30;99963.00;;;;5050347;28;20189;-65
2022/01/09 10:48:52;;;;;;;5.50;1.53;;;6.70;99.90;6.20;99967.00;;;;5065541;28;20651;-65
2022/01/09 10:51:25;;;;;;;2.63;2.00;;;6.80;99.90;6.80;99968.00;;;;5065672;28;20613;-65
2022/01/09 10:54:04;;;;;;;3.93;1.20;;;6.90;99.90;7.30;99937.00;;;;5065773;28;20186;-67
2022/01/09 10:56:38;;;;;;;7.10;2.67;;;7.30;99.90;6.80;99983.00;;;;5065254;28;20182;-65
2022/01/09 10:59:11;;;;;;;0.30;0.30;;;7.20;99.90;6.70;99981.00;;;;5050579;28;20273;-65
2022/01/09 11:01:42;;;;;;;3.40;1.20;;;7.10;99.90;6.50;99968.00;;;;5050362;28;20235;-64
2022/01/09 11:04:10;;;;;;;1.77;1.43;;;7.10;99.90;6.60;99980.00;;;;5049877;28;20556;-63
2022/01/09 11:06:43;;;;;;;0.50;0.50;;;7.00;99.90;6.40;99996.00;;;;5049934;28;20184;-63
2022/01/09 11:09:21;;;;;;;0.90;0.90;;;6.80;99.90;7.40;99988.00;;;;5049855;28;20185;-66
2022/01/09 11:11:50;;;;;;;0.60;0.60;;;7.20;99.90;7.10;99979.00;;;;5049783;28;20202;-66
2022/01/09 11:14:21;;;;;;;8.80;2.60;;;7.40;99.90;6.70;99993.00;;;;5065264;28;20179;-65
2022/01/09 11:17:05;;;;;;;2.50;2.30;;;7.20;99.90;6.80;99955.00;;;;5065138;28;20197;-65
2022/01/09 11:19:38;;;;;;;1.70;1.53;;;7.10;99.90;6.80;100007.00;;;;5065119;28;20217;-65
2022/01/09 11:22:10;;;;;;;0.30;0.30;;;7.20;99.90;6.70;99999.00;;;;5065552;28;20318;-65
2022/01/09 11:25:08;;;;;;;0.30;0.30;;;7.10;99.90;6.80;99998.00;;;;5049687;28;20174;-65
2022/01/09 11:28:33;;;;;;;1.20;0.73;;;7.10;99.90;6.60;100005.00;;;;5048699;28;20197;-65
2022/01/09 11:31:16;;;;;;;0.30;0.30;;;7.00;99.90;6.90;100008.00;;;;5048842;28;20285;-65
2022/01/09 11:34:16;;;;;;;0.30;0.30;;;7.00;99.90;7.20;100012.00;;;;5064954;28;20177;-65
2022/01/09 11:37:09;;;;;;;0.30;0.30;;;7.20;99.90;7.20;99994.00;;;;5065096;28;20188;-65
2022/01/09 11:39:45;;;;;;;0.30;0.30;;;7.40;99.90;7.20;100015.00;;;;5064544;28;20646;-65
2022/01/09 11:42:20;;;;;;;0.30;0.30;;;7.50;99.90;8.20;100015.00;;;;5049282;28;20250;-65
2022/01/09 11:44:56;;;;;;;2.23;1.80;;;7.90;99.90;7.70;100011.00;;;;5035372;28;20754;-65
2022/01/09 11:47:28;;;;;;;0.30;0.30;;;8.00;99.90;8.40;100012.00;;;;5051484;28;20224;-65
2022/01/09 11:50:02;;;;;;;9.10;2.50;;;8.20;99.90;8.80;100018.00;;;;5036170;28;20179;-66
2022/01/09 11:53:00;;;;;;;3.13;0.87;;;8.80;99.90;7.90;100010.00;;;;5035962;28;20203;-65
2022/01/09 11:55:44;;;;;;;1.27;1.17;;;8.40;99.90;7.80;99999.00;;;;5051299;28;20171;-65
2022/01/09 11:58:19;;;;;;;5.97;2.33;;;8.30;99.90;8.30;99999.00;;;;5050799;28;20183;-65
2022/01/09 12:00:53;;;;;;;0.47;0.47;;;8.50;99.90;8.50;100008.00;;;;5035698;28;20179;-65
2022/01/09 12:03:39;;;;;;;3.63;1.53;;;8.60;99.90;8.50;99995.00;;;;5050715;28;20176;-66